sensor_id;sensor_type;location;lat;lon;timestamp;P1;durP1;ratioP1;P2;durP2;ratioP2
1959;SDS011;980;43.794;11.212;2023-06-24T08:36:04;5.00;;;5.00;;
1959;SDS011;980;43.794;11.212;2023-06-24T08:38:29;4.25;;;4.25;;
1959;SDS011;980;43.794;11.212;2023-06-24T08:40:55;2.00;;;2.00;;
1959;SDS011;980;43.794;11.212;2023-06-24T08:43:20;4.50;;;3.00;;
1959;SDS011;980;43.794;11.212;2023-06-24T08:45:46;3.00;;;3.00;;
1959;SDS011;980;43.794;11.212;2023-06-24T08:48:11;3.75;;;2.50;;
1959;SDS011;980;43.794;11.212;2023-06-24T08:50:40;2.20;;;2.20;;
1959;SDS011;980;43.794;11.212;2023-06-24T08:53:08;6.00;;;5.40;;
1959;SDS011;980;43.794;11.212;2023-06-24T08:55:39;2.20;;;2.20;;
1959;SDS011;980;43.794;11.212;2023-06-24T08:58:05;4.40;;;3.80;;
1959;SDS011;980;43.794;11.212;2023-06-24T09:00:30;4.00;;;3.00;;
1959;SDS011;980;43.794;11.212;2023-06-24T09:02:55;2.33;;;2.00;;
1959;SDS011;980;43.794;11.212;2023-06-24T09:05:21;2.00;;;2.00;;
1959;SDS011;980;43.794;11.212;2023-06-24T09:07:46;6.67;;;6.67;;
1959;SDS011;980;43.794;11.212;2023-06-24T09:10:28;4.00;;;4.00;;
1959;SDS011;980;43.794;11.212;2023-06-24T09:12:54;9.75;;;8.25;;
1959;SDS011;980;43.794;11.212;2023-06-24T09:15:19;4.00;;;4.00;;
1959;SDS011;980;43.794;11.212;2023-06-24T09:17:45;4.33;;;3.00;;
1959;SDS011;980;43.794;11.212;2023-06-24T09:20:13;3.50;;;2.50;;
1959;SDS011;980;43.794;11.212;2023-06-24T09:22:41;2.67;;;2.00;;
1959;SDS011;980;43.794;11.212;2023-06-24T09:25:07;3.00;;;3.00;;
1959;SDS011;980;43.794;11.212;2023-06-24T09:27:32;3.00;;;3.00;;
1959;SDS011;980;43.794;11.212;2023-06-24T09:30:00;2.20;;;2.20;;
1959;SDS011;980;43.794;11.212;2023-06-24T09:32:29;3.00;;;3.00;;
1959;SDS011;980;43.794;11.212;2023-06-24T09:34:54;2.25;;;1.75;;
1959;SDS011;980;43.794;11.212;2023-06-24T09:37:22;1.00;;;1.00;;
1959;SDS011;980;43.794;11.212;2023-06-24T09:39:48;3.00;;;3.00;;
1959;SDS011;980;43.794;11.212;2023-06-24T09:42:14;2.67;;;1.33;;
1959;SDS011;980;43.794;11.212;2023-06-24T09:44:39;1.67;;;1.67;;
1959;SDS011;980;43.794;11.212;2023-06-24T09:47:05;1.00;;;1.00;;
1959;SDS011;980;43.794;11.212;2023-06-24T09:49:30;2.00;;;2.00;;
1959;SDS011;980;43.794;11.212;2023-06-24T09:51:56;2.33;;;1.33;;
1959;SDS011;980;43.794;11.212;2023-06-24T09:54:28;1.75;;;1.75;;
1959;SDS011;980;43.794;11.212;2023-06-24T09:56:54;2.00;;;2.00;;
1959;SDS011;980;43.794;11.212;2023-06-24T09:59:19;1.25;;;1.25;;
1959;SDS011;980;43.794;11.212;2023-06-24T10:01:46;2.00;;;2.00;;
1959;SDS011;980;43.794;11.212;2023-06-24T10:04:14;3.00;;;1.67;;
1959;SDS011;980;43.794;11.212;2023-06-24T10:06:40;2.00;;;1.50;;
1959;SDS011;980;43.794;11.212;2023-06-24T10:09:06;3.00;;;1.33;;
1959;SDS011;980;43.794;11.212;2023-06-24T10:11:31;2.00;;;2.00;;
1959;SDS011;980;43.794;11.212;2023-06-24T10:13:56;3.00;;;2.00;;
1959;SDS011;980;43.794;11.212;2023-06-24T10:16:25;1.67;;;1.00;;
1959;SDS011;980;43.794;11.212;2023-06-24T10:18:50;4.00;;;2.00;;
1959;SDS011;980;43.794;11.212;2023-06-24T10:21:15;2.00;;;2.00;;
1959;SDS011;980;43.794;11.212;2023-06-24T10:23:51;2.00;;;1.00;;
1959;SDS011;980;43.794;11.212;2023-06-24T10:34:16;1.75;;;1.75;;
1959;SDS011;980;43.794;11.212;2023-06-24T10:36:54;3.25;;;3.00;;
1959;SDS011;980;43.794;11.212;2023-06-24T10:44:48;2.00;;;2.00;;
1959;SDS011;980;43.794;11.212;2023-06-24T10:47:13;0.00;;;0.00;;
1959;SDS011;980;43.794;11.212;2023-06-24T10:49:39;1.00;;;1.00;;
1959;SDS011;980;43.794;11.212;2023-06-24T10:52:04;1.33;;;1.33;;
1959;SDS011;980;43.794;11.212;2023-06-24T10:54:32;1.50;;;0.25;;
1959;SDS011;980;43.794;11.212;2023-06-24T10:56:57;3.00;;;1.33;;
1959;SDS011;980;43.794;11.212;2023-06-24T10:59:23;0.67;;;0.67;;
1959;SDS011;980;43.794;11.212;2023-06-24T11:01:52;1.67;;;1.00;;
1959;SDS011;980;43.794;11.212;2023-06-24T11:04:18;0.00;;;0.00;;
1959;SDS011;980;43.794;11.212;2023-06-24T11:06:43;1.33;;;0.00;;
1959;SDS011;980;43.794;11.212;2023-06-24T11:09:21;0.00;;;0.00;;
1959;SDS011;980;43.794;11.212;2023-06-24T11:11:46;1.00;;;1.00;;
1959;SDS011;980;43.794;11.212;2023-06-24T11:14:11;1.00;;;0.00;;
1959;SDS011;980;43.794;11.212;2023-06-24T11:16:37;0.00;;;0.00;;
1959;SDS011;980;43.794;11.212;2023-06-24T11:19:04;1.00;;;1.00;;
1959;SDS011;980;43.794;11.212;2023-06-24T11:21:30;0.75;;;0.50;;
1959;SDS011;980;43.794;11.212;2023-06-24T11:24:04;0.00;;;0.00;;
1959;SDS011;980;43.794;11.212;2023-06-24T11:26:29;2.50;;;0.75;;
1959;SDS011;980;43.794;11.212;2023-06-24T11:28:55;1.00;;;0.00;;
1959;SDS011;980;43.794;11.212;2023-06-24T11:31:26;0.67;;;0.67;;
1959;SDS011;980;43.794;11.212;2023-06-24T11:33:51;1.75;;;1.50;;
1959;SDS011;980;43.794;11.212;2023-06-24T11:36:20;0.00;;;0.00;;
1959;SDS011;980;43.794;11.212;2023-06-24T11:38:46;1.00;;;1.00;;
1959;SDS011;980;43.794;11.212;2023-06-24T11:41:11;2.00;;;2.00;;
1959;SDS011;980;43.794;11.212;2023-06-24T11:43:36;1.00;;;1.00;;
1959;SDS011;980;43.794;11.212;2023-06-24T11:46:01;0.00;;;0.00;;
1959;SDS011;980;43.794;11.212;2023-06-24T11:48:30;1.00;;;1.00;;
1959;SDS011;980;43.794;11.212;2023-06-24T11:50:55;1.00;;;1.00;;
1959;SDS011;980;43.794;11.212;2023-06-24T11:53:30;0.00;;;0.00;;
1959;SDS011;980;43.794;11.212;2023-06-24T11:55:56;0.00;;;0.00;;
1959;SDS011;980;43.794;11.212;2023-06-24T11:58:21;1.00;;;0.00;;
1959;SDS011;980;43.794;11.212;2023-06-24T12:00:48;0.00;;;0.00;;
1959;SDS011;980;43.794;11.212;2023-06-24T12:03:13;0.00;;;0.00;;
1959;SDS011;980;43.794;11.212;2023-06-24T12:05:39;0.00;;;0.00;;
1959;SDS011;980;43.794;11.212;2023-06-24T12:08:10;0.00;;;0.00;;
1959;SDS011;980;43.794;11.212;2023-06-24T12:10:40;0.00;;;0.00;;
1959;SDS011;980;43.794;11.212;2023-06-24T12:13:05;0.33;;;0.33;;
1959;SDS011;980;43.794;11.212;2023-06-24T12:15:31;0.00;;;0.00;;
1959;SDS011;980;43.794;11.212;2023-06-24T12:18:00;0.00;;;0.00;;
1959;SDS011;980;43.794;11.212;2023-06-24T12:20:26;0.00;;;0.00;;
1959;SDS011;980;43.794;11.212;2023-06-24T12:22:51;0.00;;;0.00;;
1959;SDS011;980;43.794;11.212;2023-06-24T12:25:16;1.00;;;1.00;;
1959;SDS011;980;43.794;11.212;2023-06-24T12:27:42;0.67;;;0.67;;
1959;SDS011;980;43.794;11.212;2023-06-24T12:30:08;0.00;;;0.00;;
1959;SDS011;980;43.794;11.212;2023-06-24T12:32:33;0.00;;;0.00;;
1959;SDS011;980;43.794;11.212;2023-06-24T12:34:59;0.00;;;0.00;;
1959;SDS011;980;43.794;11.212;2023-06-24T12:37:24;0.00;;;0.00;;
1959;SDS011;980;43.794;11.212;2023-06-24T12:39:49;0.00;;;0.00;;
1959;SDS011;980;43.794;11.212;2023-06-24T12:42:16;0.00;;;0.00;;
1959;SDS011;980;43.794;11.212;2023-06-24T12:44:41;3.00;;;0.33;;
1959;SDS011;980;43.794;11.212;2023-06-24T12:47:06;0.00;;;0.00;;
1959;SDS011;980;43.794;11.212;2023-06-24T12:49:32;0.00;;;0.00;;
1959;SDS011;980;43.794;11.212;2023-06-24T12:51:57;0.00;;;0.00;;
1959;SDS011;980;43.794;11.212;2023-06-24T12:54:22;0.33;;;0.33;;
1959;SDS011;980;43.794;11.212;2023-06-24T12:56:48;0.67;;;0.00;;
1959;SDS011;980;43.794;11.212;2023-06-24T12:59:13;0.00;;;0.00;;
1959;SDS011;980;43.794;11.212;2023-06-24T13:01:38;0.00;;;0.00;;
